sensor_id;sensor_type;location;lat;lon;timestamp;P1;durP1;ratioP1;P2;durP2;ratioP2
26086;SDS011;13851;43.434;28.338;2023-05-10T00:01:42;14.15;;;9.30;;
26086;SDS011;13851;43.434;28.338;2023-05-10T00:04:10;11.57;;;9.73;;
26086;SDS011;13851;43.434;28.338;2023-05-10T00:06:36;12.25;;;9.45;;
26086;SDS011;13851;43.434;28.338;2023-05-10T00:09:01;13.10;;;9.43;;
26086;SDS011;13851;43.434;28.338;2023-05-10T00:11:28;12.65;;;9.40;;
26086;SDS011;13851;43.434;28.338;2023-05-10T00:13:53;11.07;;;9.50;;
26086;SDS011;13851;43.434;28.338;2023-05-10T00:16:19;14.63;;;10.73;;
26086;SDS011;13851;43.434;28.338;2023-05-10T00:18:47;12.45;;;11.15;;
26086;SDS011;13851;43.434;28.338;2023-05-10T00:21:13;12.27;;;10.80;;
26086;SDS011;13851;43.434;28.338;2023-05-10T00:23:38;13.82;;;10.57;;
26086;SDS011;13851;43.434;28.338;2023-05-10T00:26:07;15.18;;;10.57;;
26086;SDS011;13851;43.434;28.338;2023-05-10T00:28:33;11.55;;;10.35;;
26086;SDS011;13851;43.434;28.338;2023-05-10T00:30:58;11.30;;;10.20;;
26086;SDS011;13851;43.434;28.338;2023-05-10T00:33:24;10.70;;;9.70;;
26086;SDS011;13851;43.434;28.338;2023-05-10T00:35:49;11.45;;;10.35;;
26086;SDS011;13851;43.434;28.338;2023-05-10T00:38:15;11.23;;;10.05;;
26086;SDS011;13851;43.434;28.338;2023-05-10T00:40:41;11.48;;;10.23;;
26086;SDS011;13851;43.434;28.338;2023-05-10T00:43:06;11.90;;;10.10;;
26086;SDS011;13851;43.434;28.338;2023-05-10T00:45:32;13.88;;;10.70;;
26086;SDS011;13851;43.434;28.338;2023-05-10T00:47:59;13.23;;;10.88;;
26086;SDS011;13851;43.434;28.338;2023-05-10T00:50:27;13.40;;;11.13;;
26086;SDS011;13851;43.434;28.338;2023-05-10T00:52:53;13.27;;;11.50;;
26086;SDS011;13851;43.434;28.338;2023-05-10T00:55:19;15.48;;;11.70;;
26086;SDS011;13851;43.434;28.338;2023-05-10T00:57:45;14.43;;;11.57;;
26086;SDS011;13851;43.434;28.338;2023-05-10T01:00:15;12.75;;;11.38;;
26086;SDS011;13851;43.434;28.338;2023-05-10T01:02:46;14.82;;;10.73;;
26086;SDS011;13851;43.434;28.338;2023-05-10T01:05:12;12.85;;;11.65;;
26086;SDS011;13851;43.434;28.338;2023-05-10T01:07:39;11.63;;;10.48;;
26086;SDS011;13851;43.434;28.338;2023-05-10T01:10:05;13.98;;;11.93;;
26086;SDS011;13851;43.434;28.338;2023-05-10T01:12:32;14.13;;;12.45;;
26086;SDS011;13851;43.434;28.338;2023-05-10T01:15:06;13.30;;;12.05;;
26086;SDS011;13851;43.434;28.338;2023-05-10T01:17:33;16.80;;;12.27;;
26086;SDS011;13851;43.434;28.338;2023-05-10T01:20:06;12.80;;;11.57;;
26086;SDS011;13851;43.434;28.338;2023-05-10T01:25:30;12.73;;;11.43;;
26086;SDS011;13851;43.434;28.338;2023-05-10T01:28:23;13.30;;;11.32;;
26086;SDS011;13851;43.434;28.338;2023-05-10T01:33:55;12.38;;;11.10;;
26086;SDS011;13851;43.434;28.338;2023-05-10T01:39:06;14.57;;;12.80;;
26086;SDS011;13851;43.434;28.338;2023-05-10T01:41:55;13.27;;;11.70;;
26086;SDS011;13851;43.434;28.338;2023-05-10T01:44:31;13.23;;;11.77;;
26086;SDS011;13851;43.434;28.338;2023-05-10T01:47:17;14.82;;;13.38;;
26086;SDS011;13851;43.434;28.338;2023-05-10T01:49:50;26.08;;;22.73;;
26086;SDS011;13851;43.434;28.338;2023-05-10T01:52:22;20.55;;;18.23;;
26086;SDS011;13851;43.434;28.338;2023-05-10T01:54:56;16.65;;;14.50;;
26086;SDS011;13851;43.434;28.338;2023-05-10T01:57:32;17.95;;;16.05;;
26086;SDS011;13851;43.434;28.338;2023-05-10T02:00:00;15.13;;;13.63;;
26086;SDS011;13851;43.434;28.338;2023-05-10T02:02:29;14.20;;;12.73;;
26086;SDS011;13851;43.434;28.338;2023-05-10T02:04:58;13.85;;;12.45;;
26086;SDS011;13851;43.434;28.338;2023-05-10T02:07:24;13.73;;;12.38;;
26086;SDS011;13851;43.434;28.338;2023-05-10T02:09:52;13.93;;;12.45;;
26086;SDS011;13851;43.434;28.338;2023-05-10T02:12:18;13.82;;;12.57;;
26086;SDS011;13851;43.434;28.338;2023-05-10T02:14:44;13.30;;;11.75;;
26086;SDS011;13851;43.434;28.338;2023-05-10T02:17:11;13.27;;;11.88;;
26086;SDS011;13851;43.434;28.338;2023-05-10T02:19:40;14.48;;;12.77;;
26086;SDS011;13851;43.434;28.338;2023-05-10T02:22:07;14.23;;;12.73;;
26086;SDS011;13851;43.434;28.338;2023-05-10T02:24:34;13.88;;;12.57;;
26086;SDS011;13851;43.434;28.338;2023-05-10T02:27:02;13.70;;;12.27;;
26086;SDS011;13851;43.434;28.338;2023-05-10T02:29:31;14.18;;;12.88;;
26086;SDS011;13851;43.434;28.338;2023-05-10T02:31:58;14.30;;;12.88;;
26086;SDS011;13851;43.434;28.338;2023-05-10T02:34:27;13.75;;;12.38;;
26086;SDS011;13851;43.434;28.338;2023-05-10T02:37:00;14.23;;;12.73;;
26086;SDS011;13851;43.434;28.338;2023-05-10T02:39:31;12.90;;;11.70;;
26086;SDS011;13851;43.434;28.338;2023-05-10T02:41:57;13.50;;;12.20;;
26086;SDS011;13851;43.434;28.338;2023-05-10T02:44:24;14.15;;;12.85;;
26086;SDS011;13851;43.434;28.338;2023-05-10T02:46:56;14.77;;;13.35;;
26086;SDS011;13851;43.434;28.338;2023-05-10T02:49:22;14.50;;;12.88;;
26086;SDS011;13851;43.434;28.338;2023-05-10T02:51:49;13.60;;;12.40;;
26086;SDS011;13851;43.434;28.338;2023-05-10T02:54:27;15.27;;;12.73;;
26086;SDS011;13851;43.434;28.338;2023-05-10T02:56:56;14.23;;;12.73;;
26086;SDS011;13851;43.434;28.338;2023-05-10T02:59:24;13.95;;;12.23;;
26086;SDS011;13851;43.434;28.338;2023-05-10T03:01:50;14.52;;;12.82;;
26086;SDS011;13851;43.434;28.338;2023-05-10T03:04:15;15.05;;;13.55;;
26086;SDS011;13851;43.434;28.338;2023-05-10T03:06:41;17.17;;;15.10;;
26086;SDS011;13851;43.434;28.338;2023-05-10T03:09:07;14.05;;;12.75;;
26086;SDS011;13851;43.434;28.338;2023-05-10T03:17:30;13.02;;;11.73;;
26086;SDS011;13851;43.434;28.338;2023-05-10T03:20:08;12.82;;;11.60;;
26086;SDS011;13851;43.434;28.338;2023-05-10T03:22:40;12.98;;;11.45;;
26086;SDS011;13851;43.434;28.338;2023-05-10T03:25:15;13.68;;;11.45;;
26086;SDS011;13851;43.434;28.338;2023-05-10T03:27:42;12.48;;;11.25;;
26086;SDS011;13851;43.434;28.338;2023-05-10T03:30:12;12.48;;;11.27;;
26086;SDS011;13851;43.434;28.338;2023-05-10T03:32:38;12.82;;;11.52;;
26086;SDS011;13851;43.434;28.338;2023-05-10T03:35:08;13.10;;;11.57;;
26086;SDS011;13851;43.434;28.338;2023-05-10T03:37:34;12.10;;;10.95;;
26086;SDS011;13851;43.434;28.338;2023-05-10T03:40:00;12.98;;;11.65;;
26086;SDS011;13851;43.434;28.338;2023-05-10T03:42:26;12.45;;;11.20;;
26086;SDS011;13851;43.434;28.338;2023-05-10T03:44:54;13.18;;;11.40;;
26086;SDS011;13851;43.434;28.338;2023-05-10T03:47:25;14.48;;;12.98;;
26086;SDS011;13851;43.434;28.338;2023-05-10T03:49:51;13.68;;;12.27;;
26086;SDS011;13851;43.434;28.338;2023-05-10T03:52:19;12.25;;;10.95;;
26086;SDS011;13851;43.434;28.338;2023-05-10T03:54:47;12.73;;;10.80;;
26086;SDS011;13851;43.434;28.338;2023-05-10T03:57:13;10.95;;;9.80;;
26086;SDS011;13851;43.434;28.338;2023-05-10T03:59:38;12.38;;;11.07;;
26086;SDS011;13851;43.434;28.338;2023-05-10T04:02:06;14.00;;;10.55;;
26086;SDS011;13851;43.434;28.338;2023-05-10T04:04:32;11.90;;;10.70;;
26086;SDS011;13851;43.434;28.338;2023-05-10T04:07:00;13.32;;;10.38;;
26086;SDS011;13851;43.434;28.338;2023-05-10T04:09:31;11.50;;;9.57;;
26086;SDS011;13851;43.434;28.338;2023-05-10T04:11:59;12.52;;;9.60;;
26086;SDS011;13851;43.434;28.338;2023-05-10T04:14:27;12.38;;;10.02;;
26086;SDS011;13851;43.434;28.338;2023-05-10T04:16:53;14.18;;;12.35;;
26086;SDS011;13851;43.434;28.338;2023-05-10T04:19:21;14.32;;;10.07;;
26086;SDS011;13851;43.434;28.338;2023-05-10T04:21:46;12.70;;;9.90;;
26086;SDS011;13851;43.434;28.338;2023-05-10T04:24:12;10.85;;;9.35;;
26086;SDS011;13851;43.434;28.338;2023-05-10T04:26:37;14.07;;;10.38;;
26086;SDS011;13851;43.434;28.338;2023-05-10T04:29:03;12.13;;;10.02;;
26086;SDS011;13851;43.434;28.338;2023-05-10T04:31:28;10.80;;;9.07;;
26086;SDS011;13851;43.434;28.338;2023-05-10T04:33:54;11.98;;;9.88;;
26086;SDS011;13851;43.434;28.338;2023-05-10T04:36:19;13.65;;;10.27;;
26086;SDS011;13851;43.434;28.338;2023-05-10T04:38:45;11.00;;;9.02;;
26086;SDS011;13851;43.434;28.338;2023-05-10T04:41:11;10.25;;;8.38;;
26086;SDS011;13851;43.434;28.338;2023-05-10T04:43:37;10.15;;;8.98;;
26086;SDS011;13851;43.434;28.338;2023-05-10T04:46:03;14.38;;;8.88;;
26086;SDS011;13851;43.434;28.338;2023-05-10T04:48:33;14.60;;;9.52;;
26086;SDS011;13851;43.434;28.338;2023-05-10T04:50:58;31.15;;;26.63;;
26086;SDS011;13851;43.434;28.338;2023-05-10T04:53:24;28.92;;;21.80;;
26086;SDS011;13851;43.434;28.338;2023-05-10T04:55:49;28.00;;;24.42;;
26086;SDS011;13851;43.434;28.338;2023-05-10T04:58:15;18.42;;;14.80;;
26086;SDS011;13851;43.434;28.338;2023-05-10T05:00:41;10.98;;;8.10;;
26086;SDS011;13851;43.434;28.338;2023-05-10T05:03:07;9.60;;;6.90;;
26086;SDS011;13851;43.434;28.338;2023-05-10T05:05:36;7.20;;;6.50;;
26086;SDS011;13851;43.434;28.338;2023-05-10T05:08:01;11.27;;;6.80;;
26086;SDS011;13851;43.434;28.338;2023-05-10T05:10:27;9.63;;;6.32;;
26086;SDS011;13851;43.434;28.338;2023-05-10T05:12:53;7.43;;;5.38;;
26086;SDS011;13851;43.434;28.338;2023-05-10T05:15:18;7.68;;;5.03;;
26086;SDS011;13851;43.434;28.338;2023-05-10T05:17:44;8.20;;;4.78;;
26086;SDS011;13851;43.434;28.338;2023-05-10T05:20:09;5.93;;;4.80;;
26086;SDS011;13851;43.434;28.338;2023-05-10T05:22:36;5.90;;;4.43;;
26086;SDS011;13851;43.434;28.338;2023-05-10T05:25:02;5.65;;;4.22;;
26086;SDS011;13851;43.434;28.338;2023-05-10T05:27:28;5.93;;;3.92;;
26086;SDS011;13851;43.434;28.338;2023-05-10T05:29:55;7.80;;;4.10;;
26086;SDS011;13851;43.434;28.338;2023-05-10T05:32:21;9.77;;;4.03;;
26086;SDS011;13851;43.434;28.338;2023-05-10T05:34:53;7.65;;;4.28;;
26086;SDS011;13851;43.434;28.338;2023-05-10T05:37:18;8.77;;;4.93;;
26086;SDS011;13851;43.434;28.338;2023-05-10T05:39:46;8.32;;;4.82;;
26086;SDS011;13851;43.434;28.338;2023-05-10T05:42:12;5.80;;;5.10;;
26086;SDS011;13851;43.434;28.338;2023-05-10T05:44:38;4.72;;;4.25;;
26086;SDS011;13851;43.434;28.338;2023-05-10T05:47:07;5.07;;;3.83;;
26086;SDS011;13851;43.434;28.338;2023-05-10T05:49:32;8.15;;;4.45;;
26086;SDS011;13851;43.434;28.338;2023-05-10T05:51:59;4.72;;;3.42;;
26086;SDS011;13851;43.434;28.338;2023-05-10T05:54:28;6.03;;;4.07;;
26086;SDS011;13851;43.434;28.338;2023-05-10T05:56:54;5.85;;;3.97;;
26086;SDS011;13851;43.434;28.338;2023-05-10T05:59:21;3.85;;;3.55;;
26086;SDS011;13851;43.434;28.338;2023-05-10T06:01:46;3.92;;;3.58;;
26086;SDS011;13851;43.434;28.338;2023-05-10T06:04:12;4.43;;;3.65;;
26086;SDS011;13851;43.434;28.338;2023-05-10T06:06:38;8.43;;;4.10;;
26086;SDS011;13851;43.434;28.338;2023-05-10T06:09:03;8.55;;;4.40;;
26086;SDS011;13851;43.434;28.338;2023-05-10T06:11:29;6.30;;;3.95;;
26086;SDS011;13851;43.434;28.338;2023-05-10T06:13:57;7.75;;;5.20;;
26086;SDS011;13851;43.434;28.338;2023-05-10T06:16:23;6.40;;;4.70;;
26086;SDS011;13851;43.434;28.338;2023-05-10T06:18:48;6.07;;;4.20;;
26086;SDS011;13851;43.434;28.338;2023-05-10T06:21:14;7.43;;;3.70;;
26086;SDS011;13851;43.434;28.338;2023-05-10T06:23:41;7.10;;;3.50;;
26086;SDS011;13851;43.434;28.338;2023-05-10T06:26:07;8.07;;;3.33;;
26086;SDS011;13851;43.434;28.338;2023-05-10T06:28:32;4.22;;;2.70;;
26086;SDS011;13851;43.434;28.338;2023-05-10T06:30:58;5.03;;;2.92;;
26086;SDS011;13851;43.434;28.338;2023-05-10T06:33:24;3.90;;;3.05;;
26086;SDS011;13851;43.434;28.338;2023-05-10T06:35:50;3.97;;;3.38;;
26086;SDS011;13851;43.434;28.338;2023-05-10T06:38:16;5.90;;;3.25;;
26086;SDS011;13851;43.434;28.338;2023-05-10T06:40:42;5.93;;;3.25;;
26086;SDS011;13851;43.434;28.338;2023-05-10T06:43:08;5.90;;;3.00;;
26086;SDS011;13851;43.434;28.338;2023-05-10T06:45:34;8.13;;;7.05;;
26086;SDS011;13851;43.434;28.338;2023-05-10T06:47:59;4.32;;;3.80;;
26086;SDS011;13851;43.434;28.338;2023-05-10T06:50:25;3.83;;;2.72;;
26086;SDS011;13851;43.434;28.338;2023-05-10T06:52:50;4.38;;;2.92;;
26086;SDS011;13851;43.434;28.338;2023-05-10T06:55:16;6.53;;;3.80;;
26086;SDS011;13851;43.434;28.338;2023-05-10T06:57:42;5.30;;;3.17;;
26086;SDS011;13851;43.434;28.338;2023-05-10T07:00:07;6.50;;;3.35;;
26086;SDS011;13851;43.434;28.338;2023-05-10T07:02:34;4.20;;;3.40;;
26086;SDS011;13851;43.434;28.338;2023-05-10T07:05:00;6.35;;;3.15;;
26086;SDS011;13851;43.434;28.338;2023-05-10T07:07:27;6.35;;;3.47;;
26086;SDS011;13851;43.434;28.338;2023-05-10T07:09:52;5.00;;;2.95;;
26086;SDS011;13851;43.434;28.338;2023-05-10T07:12:18;4.03;;;3.22;;
26086;SDS011;13851;43.434;28.338;2023-05-10T07:14:43;6.18;;;3.45;;
26086;SDS011;13851;43.434;28.338;2023-05-10T07:17:09;5.32;;;3.13;;
26086;SDS011;13851;43.434;28.338;2023-05-10T07:19:35;4.88;;;3.50;;
26086;SDS011;13851;43.434;28.338;2023-05-10T07:22:01;4.50;;;3.17;;
26086;SDS011;13851;43.434;28.338;2023-05-10T07:24:26;5.22;;;3.13;;
26086;SDS011;13851;43.434;28.338;2023-05-10T07:26:52;4.93;;;3.10;;
26086;SDS011;13851;43.434;28.338;2023-05-10T07:29:17;6.32;;;2.78;;
26086;SDS011;13851;43.434;28.338;2023-05-10T07:31:43;5.22;;;3.40;;
26086;SDS011;13851;43.434;28.338;2023-05-10T07:34:09;7.45;;;3.38;;
26086;SDS011;13851;43.434;28.338;2023-05-10T07:36:35;5.78;;;3.42;;
26086;SDS011;13851;43.434;28.338;2023-05-10T07:39:00;5.57;;;3.25;;
26086;SDS011;13851;43.434;28.338;2023-05-10T07:41:29;6.97;;;5.38;;
26086;SDS011;13851;43.434;28.338;2023-05-10T07:43:55;4.47;;;2.60;;
26086;SDS011;13851;43.434;28.338;2023-05-10T07:46:20;3.35;;;2.97;;
26086;SDS011;13851;43.434;28.338;2023-05-10T07:48:46;4.35;;;2.80;;
26086;SDS011;13851;43.434;28.338;2023-05-10T07:51:12;7.22;;;3.60;;
26086;SDS011;13851;43.434;28.338;2023-05-10T07:53:37;4.43;;;3.50;;
26086;SDS011;13851;43.434;28.338;2023-05-10T07:56:20;4.18;;;3.00;;
26086;SDS011;13851;43.434;28.338;2023-05-10T07:58:45;4.95;;;3.53;;
26086;SDS011;13851;43.434;28.338;2023-05-10T08:01:11;4.80;;;2.97;;
26086;SDS011;13851;43.434;28.338;2023-05-10T08:03:36;6.60;;;3.60;;
26086;SDS011;13851;43.434;28.338;2023-05-10T08:06:02;3.90;;;3.47;;
26086;SDS011;13851;43.434;28.338;2023-05-10T08:08:28;3.28;;;2.97;;
26086;SDS011;13851;43.434;28.338;2023-05-10T08:10:54;4.18;;;3.40;;
26086;SDS011;13851;43.434;28.338;2023-05-10T08:13:19;7.28;;;4.43;;
26086;SDS011;13851;43.434;28.338;2023-05-10T08:15:44;3.65;;;3.35;;
26086;SDS011;13851;43.434;28.338;2023-05-10T08:18:11;7.43;;;3.42;;
26086;SDS011;13851;43.434;28.338;2023-05-10T08:20:36;5.28;;;3.63;;
26086;SDS011;13851;43.434;28.338;2023-05-10T08:23:02;4.03;;;3.63;;
26086;SDS011;13851;43.434;28.338;2023-05-10T08:25:27;4.03;;;3.30;;
26086;SDS011;13851;43.434;28.338;2023-05-10T08:27:53;5.10;;;3.35;;
26086;SDS011;13851;43.434;28.338;2023-05-10T08:30:21;5.80;;;3.67;;
26086;SDS011;13851;43.434;28.338;2023-05-10T08:32:47;4.90;;;3.35;;
26086;SDS011;13851;43.434;28.338;2023-05-10T08:35:12;4.20;;;3.38;;
26086;SDS011;13851;43.434;28.338;2023-05-10T08:37:38;4.25;;;3.60;;
26086;SDS011;13851;43.434;28.338;2023-05-10T08:40:03;6.78;;;3.25;;
26086;SDS011;13851;43.434;28.338;2023-05-10T08:42:30;5.35;;;3.60;;
26086;SDS011;13851;43.434;28.338;2023-05-10T08:45:00;5.20;;;3.40;;
26086;SDS011;13851;43.434;28.338;2023-05-10T08:47:27;3.92;;;3.10;;
26086;SDS011;13851;43.434;28.338;2023-05-10T08:49:54;4.05;;;3.05;;
26086;SDS011;13851;43.434;28.338;2023-05-10T08:52:20;7.80;;;3.10;;
26086;SDS011;13851;43.434;28.338;2023-05-10T08:54:49;6.32;;;3.50;;
26086;SDS011;13851;43.434;28.338;2023-05-10T08:57:14;6.78;;;3.58;;
26086;SDS011;13851;43.434;28.338;2023-05-10T08:59:40;4.95;;;3.33;;
26086;SDS011;13851;43.434;28.338;2023-05-10T09:02:06;4.18;;;3.40;;
26086;SDS011;13851;43.434;28.338;2023-05-10T09:04:37;6.90;;;3.55;;
26086;SDS011;13851;43.434;28.338;2023-05-10T09:07:03;9.73;;;3.95;;
26086;SDS011;13851;43.434;28.338;2023-05-10T09:09:28;3.50;;;3.20;;
26086;SDS011;13851;43.434;28.338;2023-05-10T09:11:54;8.38;;;4.07;;
26086;SDS011;13851;43.434;28.338;2023-05-10T09:14:20;5.57;;;3.30;;
26086;SDS011;13851;43.434;28.338;2023-05-10T09:16:48;6.47;;;3.15;;
26086;SDS011;13851;43.434;28.338;2023-05-10T09:19:13;3.33;;;2.97;;
26086;SDS011;13851;43.434;28.338;2023-05-10T09:21:39;5.70;;;3.80;;
26086;SDS011;13851;43.434;28.338;2023-05-10T09:24:05;3.90;;;3.55;;
26086;SDS011;13851;43.434;28.338;2023-05-10T09:26:32;4.03;;;3.70;;
26086;SDS011;13851;43.434;28.338;2023-05-10T09:28:59;5.53;;;3.70;;
26086;SDS011;13851;43.434;28.338;2023-05-10T09:31:42;7.35;;;3.47;;
26086;SDS011;13851;43.434;28.338;2023-05-10T09:34:20;5.15;;;3.20;;
26086;SDS011;13851;43.434;28.338;2023-05-10T09:36:56;7.63;;;3.80;;
26086;SDS011;13851;43.434;28.338;2023-05-10T09:42:07;4.35;;;3.47;;
26086;SDS011;13851;43.434;28.338;2023-05-10T09:44:34;3.92;;;3.40;;
26086;SDS011;13851;43.434;28.338;2023-05-10T09:47:00;4.20;;;3.28;;
26086;SDS011;13851;43.434;28.338;2023-05-10T09:49:26;6.15;;;3.80;;
26086;SDS011;13851;43.434;28.338;2023-05-10T09:52:05;5.88;;;3.97;;
26086;SDS011;13851;43.434;28.338;2023-05-10T09:54:34;4.70;;;3.38;;
26086;SDS011;13851;43.434;28.338;2023-05-10T09:57:01;5.30;;;3.13;;
26086;SDS011;13851;43.434;28.338;2023-05-10T09:59:26;5.07;;;3.65;;
26086;SDS011;13851;43.434;28.338;2023-05-10T10:01:57;4.30;;;3.00;;
26086;SDS011;13851;43.434;28.338;2023-05-10T10:07:08;4.65;;;3.42;;
26086;SDS011;13851;43.434;28.338;2023-05-10T10:09:34;5.82;;;3.63;;
26086;SDS011;13851;43.434;28.338;2023-05-10T10:12:00;4.78;;;2.90;;
26086;SDS011;13851;43.434;28.338;2023-05-10T10:14:27;2.95;;;2.72;;
26086;SDS011;13851;43.434;28.338;2023-05-10T10:16:53;3.90;;;2.92;;
26086;SDS011;13851;43.434;28.338;2023-05-10T10:19:20;5.65;;;2.83;;
26086;SDS011;13851;43.434;28.338;2023-05-10T10:21:46;4.85;;;3.10;;
26086;SDS011;13851;43.434;28.338;2023-05-10T10:24:12;3.72;;;2.97;;
26086;SDS011;13851;43.434;28.338;2023-05-10T10:26:38;3.80;;;2.40;;
26086;SDS011;13851;43.434;28.338;2023-05-10T10:29:18;4.00;;;2.50;;
26086;SDS011;13851;43.434;28.338;2023-05-10T10:34:53;3.38;;;2.78;;
26086;SDS011;13851;43.434;28.338;2023-05-10T10:37:20;4.95;;;2.80;;
26086;SDS011;13851;43.434;28.338;2023-05-10T10:39:47;4.22;;;2.60;;
26086;SDS011;13851;43.434;28.338;2023-05-10T10:42:13;6.40;;;3.10;;
26086;SDS011;13851;43.434;28.338;2023-05-10T10:44:39;9.30;;;3.00;;
26086;SDS011;13851;43.434;28.338;2023-05-10T10:52:27;4.85;;;3.15;;
26086;SDS011;13851;43.434;28.338;2023-05-10T11:03:03;6.90;;;3.17;;
26086;SDS011;13851;43.434;28.338;2023-05-10T11:05:37;5.03;;;2.75;;
26086;SDS011;13851;43.434;28.338;2023-05-10T11:08:13;3.40;;;3.00;;
26086;SDS011;13851;43.434;28.338;2023-05-10T11:16:40;5.68;;;2.92;;
26086;SDS011;13851;43.434;28.338;2023-05-10T11:18:52;10.00;;;3.33;;
26086;SDS011;13851;43.434;28.338;2023-05-10T11:21:21;6.68;;;2.67;;
26086;SDS011;13851;43.434;28.338;2023-05-10T11:23:51;3.20;;;2.90;;
26086;SDS011;13851;43.434;28.338;2023-05-10T11:26:21;3.30;;;2.90;;
26086;SDS011;13851;43.434;28.338;2023-05-10T11:28:50;5.10;;;2.78;;
26086;SDS011;13851;43.434;28.338;2023-05-10T11:31:17;2.75;;;2.38;;
26086;SDS011;13851;43.434;28.338;2023-05-10T11:33:51;5.95;;;3.10;;
26086;SDS011;13851;43.434;28.338;2023-05-10T11:36:23;3.15;;;2.85;;
26086;SDS011;13851;43.434;28.338;2023-05-10T11:38:51;5.15;;;2.80;;
26086;SDS011;13851;43.434;28.338;2023-05-10T11:41:17;7.90;;;2.83;;
26086;SDS011;13851;43.434;28.338;2023-05-10T11:43:47;5.07;;;3.00;;
26086;SDS011;13851;43.434;28.338;2023-05-10T11:46:15;4.80;;;3.00;;
26086;SDS011;13851;43.434;28.338;2023-05-10T11:48:43;6.28;;;2.88;;
26086;SDS011;13851;43.434;28.338;2023-05-10T11:51:09;3.85;;;3.00;;
26086;SDS011;13851;43.434;28.338;2023-05-10T11:53:36;4.05;;;3.30;;
26086;SDS011;13851;43.434;28.338;2023-05-10T11:56:05;5.47;;;3.28;;
26086;SDS011;13851;43.434;28.338;2023-05-10T11:58:34;5.38;;;3.40;;
26086;SDS011;13851;43.434;28.338;2023-05-10T12:01:02;6.97;;;4.50;;
26086;SDS011;13851;43.434;28.338;2023-05-10T12:03:28;3.75;;;2.92;;
26086;SDS011;13851;43.434;28.338;2023-05-10T12:05:55;5.00;;;3.53;;
26086;SDS011;13851;43.434;28.338;2023-05-10T12:08:22;9.27;;;3.28;;
26086;SDS011;13851;43.434;28.338;2023-05-10T12:10:49;3.53;;;3.00;;
26086;SDS011;13851;43.434;28.338;2023-05-10T12:13:15;7.43;;;3.05;;
26086;SDS011;13851;43.434;28.338;2023-05-10T12:15:42;5.05;;;3.22;;
26086;SDS011;13851;43.434;28.338;2023-05-10T12:18:12;5.25;;;3.30;;
26086;SDS011;13851;43.434;28.338;2023-05-10T12:20:39;8.48;;;3.08;;
26086;SDS011;13851;43.434;28.338;2023-05-10T12:23:05;3.30;;;3.00;;
26086;SDS011;13851;43.434;28.338;2023-05-10T12:25:33;4.10;;;3.13;;
26086;SDS011;13851;43.434;28.338;2023-05-10T12:28:02;4.95;;;2.88;;
26086;SDS011;13851;43.434;28.338;2023-05-10T12:30:32;10.40;;;2.83;;
26086;SDS011;13851;43.434;28.338;2023-05-10T12:33:09;4.50;;;2.85;;
26086;SDS011;13851;43.434;28.338;2023-05-10T12:35:48;4.05;;;3.72;;
26086;SDS011;13851;43.434;28.338;2023-05-10T12:38:27;5.32;;;2.72;;
26086;SDS011;13851;43.434;28.338;2023-05-10T12:41:06;5.18;;;2.83;;
26086;SDS011;13851;43.434;28.338;2023-05-10T12:43:33;3.25;;;2.60;;
26086;SDS011;13851;43.434;28.338;2023-05-10T12:46:13;5.47;;;3.03;;
26086;SDS011;13851;43.434;28.338;2023-05-10T12:48:41;5.35;;;2.60;;
26086;SDS011;13851;43.434;28.338;2023-05-10T12:51:08;4.97;;;2.75;;
26086;SDS011;13851;43.434;28.338;2023-05-10T12:53:42;3.03;;;2.53;;
26086;SDS011;13851;43.434;28.338;2023-05-10T12:56:08;4.28;;;2.70;;
26086;SDS011;13851;43.434;28.338;2023-05-10T12:58:33;2.63;;;2.42;;
26086;SDS011;13851;43.434;28.338;2023-05-10T13:01:00;4.65;;;3.22;;
26086;SDS011;13851;43.434;28.338;2023-05-10T13:03:26;3.28;;;2.70;;
26086;SDS011;13851;43.434;28.338;2023-05-10T13:05:51;3.30;;;3.00;;
26086;SDS011;13851;43.434;28.338;2023-05-10T13:08:17;4.40;;;2.70;;
26086;SDS011;13851;43.434;28.338;2023-05-10T13:10:42;5.20;;;3.60;;
26086;SDS011;13851;43.434;28.338;2023-05-10T13:13:08;3.90;;;3.10;;
26086;SDS011;13851;43.434;28.338;2023-05-10T13:15:33;5.70;;;2.85;;
26086;SDS011;13851;43.434;28.338;2023-05-10T13:17:59;6.03;;;3.20;;
26086;SDS011;13851;43.434;28.338;2023-05-10T13:20:25;3.70;;;3.03;;
26086;SDS011;13851;43.434;28.338;2023-05-10T13:22:50;4.28;;;2.88;;
26086;SDS011;13851;43.434;28.338;2023-05-10T13:25:16;3.17;;;2.53;;
26086;SDS011;13851;43.434;28.338;2023-05-10T13:27:41;4.75;;;3.13;;
26086;SDS011;13851;43.434;28.338;2023-05-10T13:30:10;3.40;;;2.70;;
26086;SDS011;13851;43.434;28.338;2023-05-10T13:32:39;3.08;;;2.80;;
26086;SDS011;13851;43.434;28.338;2023-05-10T13:35:05;5.40;;;3.30;;
26086;SDS011;13851;43.434;28.338;2023-05-10T13:37:33;3.92;;;3.05;;
26086;SDS011;13851;43.434;28.338;2023-05-10T13:40:02;4.25;;;3.20;;
26086;SDS011;13851;43.434;28.338;2023-05-10T13:42:29;4.30;;;3.17;;
26086;SDS011;13851;43.434;28.338;2023-05-10T13:44:56;5.30;;;3.17;;
26086;SDS011;13851;43.434;28.338;2023-05-10T13:47:22;3.90;;;2.85;;
26086;SDS011;13851;43.434;28.338;2023-05-10T13:49:47;5.20;;;2.97;;
26086;SDS011;13851;43.434;28.338;2023-05-10T13:52:13;3.35;;;3.15;;
26086;SDS011;13851;43.434;28.338;2023-05-10T13:54:38;4.50;;;3.20;;
26086;SDS011;13851;43.434;28.338;2023-05-10T13:57:04;3.55;;;3.00;;
26086;SDS011;13851;43.434;28.338;2023-05-10T13:59:30;6.38;;;3.13;;
26086;SDS011;13851;43.434;28.338;2023-05-10T14:01:57;7.18;;;3.80;;
26086;SDS011;13851;43.434;28.338;2023-05-10T14:04:23;5.50;;;3.20;;
26086;SDS011;13851;43.434;28.338;2023-05-10T14:06:48;5.60;;;3.40;;
26086;SDS011;13851;43.434;28.338;2023-05-10T14:09:14;4.93;;;3.30;;
26086;SDS011;13851;43.434;28.338;2023-05-10T14:11:40;6.00;;;3.25;;
26086;SDS011;13851;43.434;28.338;2023-05-10T14:14:08;8.65;;;3.17;;
26086;SDS011;13851;43.434;28.338;2023-05-10T14:16:34;4.65;;;3.65;;
26086;SDS011;13851;43.434;28.338;2023-05-10T14:19:00;4.45;;;3.63;;
26086;SDS011;13851;43.434;28.338;2023-05-10T14:21:26;5.30;;;3.30;;
26086;SDS011;13851;43.434;28.338;2023-05-10T14:23:54;6.95;;;3.88;;
26086;SDS011;13851;43.434;28.338;2023-05-10T14:26:20;4.50;;;2.88;;
26086;SDS011;13851;43.434;28.338;2023-05-10T14:28:46;6.53;;;3.10;;
26086;SDS011;13851;43.434;28.338;2023-05-10T14:31:12;4.28;;;3.20;;
26086;SDS011;13851;43.434;28.338;2023-05-10T14:33:39;5.40;;;3.38;;
26086;SDS011;13851;43.434;28.338;2023-05-10T14:36:05;5.55;;;3.35;;
26086;SDS011;13851;43.434;28.338;2023-05-10T14:38:31;5.22;;;3.15;;
26086;SDS011;13851;43.434;28.338;2023-05-10T14:40:57;5.22;;;3.53;;
26086;SDS011;13851;43.434;28.338;2023-05-10T14:43:23;5.13;;;3.17;;
26086;SDS011;13851;43.434;28.338;2023-05-10T14:45:48;6.65;;;3.63;;
26086;SDS011;13851;43.434;28.338;2023-05-10T14:48:14;3.83;;;3.42;;
26086;SDS011;13851;43.434;28.338;2023-05-10T14:50:42;4.65;;;3.58;;
26086;SDS011;13851;43.434;28.338;2023-05-10T14:56:00;5.25;;;3.17;;
26086;SDS011;13851;43.434;28.338;2023-05-10T14:58:26;3.55;;;2.90;;
26086;SDS011;13851;43.434;28.338;2023-05-10T15:00:52;5.35;;;3.25;;
26086;SDS011;13851;43.434;28.338;2023-05-10T15:03:23;4.97;;;3.45;;
26086;SDS011;13851;43.434;28.338;2023-05-10T15:05:48;4.47;;;3.15;;
26086;SDS011;13851;43.434;28.338;2023-05-10T15:08:14;3.72;;;3.17;;
26086;SDS011;13851;43.434;28.338;2023-05-10T15:10:39;3.45;;;3.03;;
26086;SDS011;13851;43.434;28.338;2023-05-10T15:13:05;4.30;;;2.88;;